ADDS METAR Data INFO
IDs: Format: Raw Decoded Include TAF

Data at: 1923 UTC 19 Jul 2018

KISP 191856Z VRB03KT 10SM FEW060 28/09 A3009 RMK AO2 SLP188 T02780094
KISP 191756Z COR 35006KT 10SM FEW060 27/08 A3009 RMK AO2 SLP189 T02670083 10272 20206 58004
KISP 191656Z COR 03006KT 10SM FEW055 27/09 A3010 RMK AO2 SLP192 T02670094
KISP 191556Z 36008KT 10SM FEW055 27/10 A3011 RMK AO2 SLP195 T02670100
KISP 191456Z VRB03KT 10SM CLR 25/11 A3010 RMK AO2 SLP193 T02500111 51009
KISP 191356Z 03006KT 10SM CLR 24/12 A3010 RMK AO2 SLP192 T02390117
KISP 191256Z AUTO 03007KT 10SM CLR 23/12 A3009 RMK AO2 SLP188 T02280122
KISP 191156Z AUTO 02008KT 10SM CLR 21/13 A3007 RMK AO2 SLP183 T02060128 10206 20167 53015
KISP 191056Z AUTO 01007KT 10SM CLR 19/14 A3006 RMK AO2 SLP177 T01890139
KISP 190956Z AUTO 01003KT 10SM CLR 17/14 A3005 RMK AO2 SLP175 T01670144
KISP 190856Z AUTO 00000KT 10SM CLR 17/14 A3003 RMK AO2 SLP169 T01670144 53012
KISP 190756Z AUTO 35003KT 10SM CLR 17/15 A3002 RMK AO2 SLP164 T01720150
KISP 190656Z AUTO 34004KT 10SM CLR 18/16 A3001 RMK AO2 SLP161 T01780156
KISP 190556Z AUTO 33005KT 10SM CLR 18/14 A3000 RMK AO2 SLP156 T01780144 10250 20172 51014
KISP 190456Z AUTO 00000KT 10SM CLR 19/15 A2998 RMK AO2 SLP152 T01890150 402940183
KISP 190356Z 33003KT 10SM CLR 20/15 A2997 RMK AO2 SLP148 LAST T02000150
KISP 190256Z 36003KT 10SM FEW065 20/14 A2996 RMK AO2 SLP143 T02000144 51016
KISP 190156Z 02003KT 10SM FEW065 22/13 A2995 RMK AO2 SLP141 T02170128
KISP 190056Z 01005KT 10SM FEW065 FEW080 FEW250 23/12 A2993 RMK AO2 SLP134 T02330117
KISP 182356Z 01007KT 10SM FEW065 FEW250 25/11 A2991 RMK AO2 SLP128 T02500111 10294 20250 53010
KISP 182256Z 02010KT 10SM FEW065 FEW250 27/10 A2989 RMK AO2 SLP120 T02670100
KISP 182156Z 35010KT 10SM FEW065 FEW250 28/11 A2988 RMK AO2 SLP117 T02780106
KISP 182056Z 35010KT 10SM FEW065 FEW250 28/10 A2988 RMK AO2 SLP116 T02830100 51001
KISP 181956Z 33015G22KT 10SM FEW060 FEW250 29/12 A2988 RMK AO2 SLP116 T02890117
KISP 181856Z 33014KT 10SM FEW060 FEW250 29/12 A2988 RMK AO2 SLP117 T02890117
KISP 181756Z 36012G20KT 10SM FEW050 FEW070 SCT250 29/13 A2988 RMK AO2 SLP115 T02940133 10294 20217 55001
KISP 181656Z 34010KT 10SM FEW050 SCT250 28/16 A2987 RMK AO2 SLP114 T02830161
KISP 181556Z 36012KT 10SM FEW050 SCT070 SCT250 27/16 A2988 RMK AO2 SLP116 T02670161
KISP 181456Z 36013KT 10SM FEW050 SCT065 BKN250 25/17 A2988 RMK AO2 SLP117 T02500167 51012
KISP 181356Z 36015G22KT 10SM FEW045 SCT250 25/17 A2987 RMK AO2 SLP115 T02500172
KISP 181256Z 36011KT 10SM FEW045 BKN250 23/18 A2986 RMK AO2 SLP110 T02280183
KISP 181156Z 34009KT 10SM FEW045 BKN250 22/18 A2985 RMK AO2 SLP106 70134 T02170183 10217 20200 53010
KISP 181056Z 34009KT 10SM FEW040 FEW140 BKN250 21/19 A2983 RMK AO2 SLP100 T02110189
KISP 180956Z 32007KT 10SM FEW080 SCT150 BKN250 20/19 A2982 RMK AO2 SLP098 T02000194
KISP 180856Z AUTO 33005KT 10SM SCT070 BKN090 21/20 A2981 RMK AO2 SLP095 T02060200 53009
KISP 180756Z AUTO 33005KT 10SM BKN065 OVC080 21/21 A2981 RMK AO2 SLP093 T02110206